Time;durP1;ratioP1;P1;durP2;ratioP2;P2;SDS_P1;SDS_P2;PMS_P1;PMS_P2;Temp;Humidity;BMP_temperature;BMP_pressure;BME280_temperature;BME280_humidity;BME280_pressure;Samples;Min_cycle;Max_cycle;Signal;HPM_P1;HPM_P2
2022/11/26 00:00:49;;;;;;;;;;;;;;;4.60;100.00;97435.16;5095636;28;20015;-73
2022/11/26 00:03:15;;;;;;;;;;;;;;;4.59;100.00;97426.53;5095395;28;19951;-73
2022/11/26 00:05:42;;;;;;;;;;;;;;;4.59;100.00;97417.94;5095212;28;19972;-73
2022/11/26 00:08:25;;;;;;;;;;;;;;;4.59;100.00;97426.53;5095118;28;19954;-73
2022/11/26 00:10:52;;;;;;;;;;;;;;;4.59;100.00;97418.75;5095162;28;19954;-73
2022/11/26 00:13:22;;;;;;;;;;;;;;;4.60;100.00;97416.97;5095207;28;19954;-73
2022/11/26 00:15:48;;;;;;;;;;;;;;;4.60;100.00;97416.97;5094956;28;19947;-73
2022/11/26 00:18:17;;;;;;;;;;;;;;;4.61;100.00;97419.41;5095303;28;20472;-73
2022/11/26 00:20:44;;;;;;;;;;;;;;;4.61;100.00;97422.00;5094858;28;19957;-73
2022/11/26 00:23:19;;;;;;;;;;;;;;;4.61;100.00;97429.00;5094849;28;19948;-74
2022/11/26 00:25:47;;;;;;;;;;;;;;;4.59;100.00;97429.13;5082001;28;19959;-73
2022/11/26 00:28:21;;;;;;;;;;;;;;;4.58;100.00;97432.72;5094993;28;19946;-73
2022/11/26 00:30:47;;;;;;;;;;;;;;;4.59;100.00;97433.53;5094330;28;20317;-73
2022/11/26 00:33:13;;;;;;;;;;;;;;;4.57;100.00;97435.47;5094480;28;19991;-73
2022/11/26 00:35:39;;;;;;;;;;;;;;;4.56;100.00;97439.06;5094777;28;20307;-73
2022/11/26 00:38:05;;;;;;;;;;;;;;;4.55;100.00;97440.00;5093326;28;20368;-73
2022/11/26 00:40:32;;;;;;;;;;;;;;;4.54;100.00;97447.00;5095281;28;19964;-73
2022/11/26 00:42:58;;;;;;;;;;;;;;;4.53;100.00;97447.13;5093453;28;19954;-73
2022/11/26 00:45:28;;;;;;;;;;;;;;;4.53;100.00;97460.94;5094742;28;19973;-73
2022/11/26 00:47:54;;;;;;;;;;;;;;;4.52;100.00;97458.50;5094495;28;19948;-73
2022/11/26 00:50:21;;;;;;;;;;;;;;;4.49;100.00;97457.00;5094317;28;19960;-73
2022/11/26 00:52:48;;;;;;;;;;;;;;;4.47;100.00;97459.78;5094725;28;20320;-73
2022/11/26 00:55:18;;;;;;;;;;;;;;;4.46;100.00;97458.16;5094477;28;19948;-73
2022/11/26 00:57:43;;;;;;;;;;;;;;;4.45;100.00;97468.69;5094091;28;20329;-74
2022/11/26 01:00:16;;;;;;;;;;;;;;;4.45;100.00;97466.09;5094632;28;19954;-73
2022/11/26 01:02:42;;;;;;;;;;;;;;;4.48;100.00;97468.38;5092934;28;19944;-73
2022/11/26 01:05:08;;;;;;;;;;;;;;;4.46;100.00;97475.53;5094017;28;19970;-73
2022/11/26 01:07:34;;;;;;;;;;;;;;;4.48;100.00;97478.78;5094364;28;19953;-73
2022/11/26 01:10:00;;;;;;;;;;;;;;;4.48;100.00;97481.38;5078881;28;19966;-73
2022/11/26 01:12:26;;;;;;;;;;;;;;;4.48;100.00;97489.97;5088084;28;19948;-73
2022/11/26 01:14:52;;;;;;;;;;;;;;;4.50;100.00;97489.03;5092751;28;19947;-73
2022/11/26 01:17:18;;;;;;;;;;;;;;;4.48;100.00;97495.16;5093976;28;20090;-73
2022/11/26 01:19:44;;;;;;;;;;;;;;;4.48;100.00;97500.38;5092815;28;19963;-73
2022/11/26 01:22:18;;;;;;;;;;;;;;;4.47;100.00;97500.50;5092891;28;20053;-73
2022/11/26 01:24:44;;;;;;;;;;;;;;;4.47;100.00;97493.56;5093888;28;19964;-73
2022/11/26 01:27:11;;;;;;;;;;;;;;;4.46;100.00;97499.69;5093293;28;19966;-73
2022/11/26 01:29:37;;;;;;;;;;;;;;;4.48;100.00;97494.38;5093851;28;19976;-73
2022/11/26 01:32:03;;;;;;;;;;;;;;;4.46;100.00;97504.91;5093795;28;19956;-73
2022/11/26 01:34:29;;;;;;;;;;;;;;;4.47;100.00;97505.72;5093560;28;19978;-73
2022/11/26 01:36:55;;;;;;;;;;;;;;;4.47;100.00;97511.75;5093914;28;19975;-73
2022/11/26 01:39:21;;;;;;;;;;;;;;;4.46;100.00;97515.28;5092422;28;20005;-73
2022/11/26 01:41:56;;;;;;;;;;;;;;;4.47;100.00;97518.69;5097359;28;20326;-73
2022/11/26 01:44:24;;;;;;;;;;;;;;;4.48;100.00;97521.16;5087855;28;19959;-73
2022/11/26 01:46:50;;;;;;;;;;;;;;;4.47;100.00;97523.88;5100519;28;20317;-73
2022/11/26 01:49:18;;;;;;;;;;;;;;;4.47;100.00;97523.88;5100292;28;19951;-73
2022/11/26 01:51:45;;;;;;;;;;;;;;;4.48;100.00;97531.53;5099267;28;19955;-73
2022/11/26 01:54:11;;;;;;;;;;;;;;;4.48;100.00;97535.94;5100619;28;20327;-72
2022/11/26 01:56:39;;;;;;;;;;;;;;;4.48;100.00;97534.13;5100408;28;19945;-73
2022/11/26 01:59:07;;;;;;;;;;;;;;;4.50;100.00;97536.59;5100137;28;19955;-73
2022/11/26 02:01:33;;;;;;;;;;;;;;;4.49;100.00;97540.13;5100394;28;19953;-73
2022/11/26 02:04:16;;;;;;;;;;;;;;;4.51;100.00;97538.19;5100206;28;19962;-73
2022/11/26 02:06:42;;;;;;;;;;;;;;;4.52;100.00;97539.84;5100719;28;19964;-73
2022/11/26 02:09:09;;;;;;;;;;;;;;;4.53;100.00;97544.06;5100391;28;19979;-73
2022/11/26 02:11:35;;;;;;;;;;;;;;;4.55;100.00;97549.13;5100355;28;19946;-73
2022/11/26 02:14:03;;;;;;;;;;;;;;;4.56;100.00;97548.16;5099072;28;19966;-73
2022/11/26 02:16:47;;;;;;;;;;;;;;;4.55;100.00;97547.31;5100078;28;19962;-73
2022/11/26 02:19:22;;;;;;;;;;;;;;;4.57;100.00;97552.38;5099041;28;19954;-73
2022/11/26 02:21:55;;;;;;;;;;;;;;;4.58;100.00;97548.81;5099085;28;19959;-73
2022/11/26 02:24:33;;;;;;;;;;;;;;;4.58;100.00;97556.63;5099859;28;19957;-73
2022/11/26 02:27:09;;;;;;;;;;;;;;;4.59;100.00;97559.03;5100072;28;19946;-73
2022/11/26 02:30:14;;;;;;;;;;;;;;;4.60;100.00;97567.66;5100299;28;20414;-73
2022/11/26 02:32:43;;;;;;;;;;;;;;;4.59;100.00;97564.25;5052330;28;19943;-73
2022/11/26 02:35:19;;;;;;;;;;;;;;;4.60;100.00;97568.47;5057439;28;19986;-73
2022/11/26 02:37:47;;;;;;;;;;;;;;;4.60;100.00;97567.66;5081042;28;19961;-73
2022/11/26 02:40:13;;;;;;;;;;;;;;;4.60;100.00;97572.84;5100255;28;19977;-73
2022/11/26 02:42:39;;;;;;;;;;;;;;;4.60;100.00;97572.84;5098961;28;19945;-73
2022/11/26 02:45:31;;;;;;;;;;;;;;;4.59;100.00;97579.81;5098748;28;19978;-73
2022/11/26 02:47:58;;;;;;;;;;;;;;;4.60;100.00;97588.44;5097490;28;19943;-73
2022/11/26 02:50:27;;;;;;;;;;;;;;;4.57;100.00;97586.97;5098679;28;19955;-73
2022/11/26 02:52:56;;;;;;;;;;;;;;;4.55;100.00;97588.88;5096620;28;19949;-73
2022/11/26 02:55:24;;;;;;;;;;;;;;;4.54;100.00;97589.88;5096617;28;19946;-73
2022/11/26 02:57:52;;;;;;;;;;;;;;;4.54;100.00;97595.06;5096385;28;19945;-73
2022/11/26 03:00:19;;;;;;;;;;;;;;;4.52;100.00;97594.41;5096600;28;20328;-72
2022/11/26 03:03:00;;;;;;;;;;;;;;;4.52;100.00;97599.59;5096359;28;20407;-73
2022/11/26 03:05:29;;;;;;;;;;;;;;;4.51;100.00;97592.75;5096476;28;20299;-73
2022/11/26 03:07:55;;;;;;;;;;;;;;;4.48;100.00;97600.88;5095081;28;20351;-73
2022/11/26 03:10:27;;;;;;;;;;;;;;;4.48;100.00;97593.06;5096378;28;19959;-73
2022/11/26 03:12:53;;;;;;;;;;;;;;;4.45;100.00;97598.56;5095206;28;19943;-73
2022/11/26 03:15:20;;;;;;;;;;;;;;;4.42;100.00;97598.88;5096383;28;19950;-72
2022/11/26 03:17:46;;;;;;;;;;;;;;;4.39;100.00;97600.00;5096288;28;19947;-73
2022/11/26 03:20:12;;;;;;;;;;;;;;;4.36;100.00;97597.69;5095160;28;19974;-73
2022/11/26 03:22:38;;;;;;;;;;;;;;;4.33;100.00;97603.19;5096086;28;19953;-73
2022/11/26 03:25:04;;;;;;;;;;;;;;;4.27;100.00;97602.00;5096287;28;20327;-73
2022/11/26 03:27:30;;;;;;;;;;;;;;;4.24;100.00;97604.91;5096071;28;19951;-73
2022/11/26 03:29:56;;;;;;;;;;;;;;;4.22;100.00;97608.59;5095433;28;19994;-73
2022/11/26 03:32:22;;;;;;;;;;;;;;;4.18;100.00;97615.88;5095829;28;19955;-73
2022/11/26 03:34:48;;;;;;;;;;;;;;;4.16;100.00;97614.38;5095491;28;19980;-73
2022/11/26 03:37:14;;;;;;;;;;;;;;;4.15;100.00;97617.94;5095697;28;20037;-73
2022/11/26 03:39:40;;;;;;;;;;;;;;;4.12;100.00;97621.66;5095052;28;19942;-73
2022/11/26 03:42:05;;;;;;;;;;;;;;;4.12;100.00;97626.03;5095580;28;19958;-73
2022/11/26 03:44:31;;;;;;;;;;;;;;;4.13;100.00;97625.88;5095964;28;20040;-73
2022/11/26 03:46:57;;;;;;;;;;;;;;;4.13;100.00;97630.25;5094505;28;19968;-73
2022/11/26 03:49:23;;;;;;;;;;;;;;;4.12;100.00;97642.44;5094599;28;20000;-73
2022/11/26 03:51:49;;;;;;;;;;;;;;;4.11;100.00;97635.59;5095366;28;20540;-73
2022/11/26 03:54:15;;;;;;;;;;;;;;;4.11;100.00;97640.78;5095780;28;20393;-72
2022/11/26 03:56:41;;;;;;;;;;;;;;;4.11;100.00;97639.97;5095344;28;19954;-73
2022/11/26 03:59:07;;;;;;;;;;;;;;;4.08;100.00;97635.91;5095619;28;19955;-73
2022/11/26 04:01:32;;;;;;;;;;;;;;;4.06;100.00;97641.22;5094189;28;19957;-72
2022/11/26 04:03:58;;;;;;;;;;;;;;;4.06;100.00;97637.81;5094748;28;19987;-73
2022/11/26 04:06:24;;;;;;;;;;;;;;;4.05;100.00;97636.19;5094682;28;20011;-73
2022/11/26 04:08:50;;;;;;;;;;;;;;;4.05;100.00;97636.19;5095415;28;19942;-73
2022/11/26 04:11:16;;;;;;;;;;;;;;;4.05;100.00;97636.19;5095387;28;20021;-73
2022/11/26 04:13:42;;;;;;;;;;;;;;;4.06;100.00;97641.22;5085039;28;19959;-73
2022/11/26 04:16:08;;;;;;;;;;;;;;;4.05;100.00;97634.41;5094942;28;20469;-73
2022/11/26 04:18:34;;;;;;;;;;;;;;;4.05;100.00;97633.56;5095115;28;19952;-73
2022/11/26 04:21:00;;;;;;;;;;;;;;;4.03;100.00;97632.91;5093673;28;19953;-72
2022/11/26 04:23:26;;;;;;;;;;;;;;;4.00;100.00;97628.84;5095528;28;19956;-72
2022/11/26 04:25:52;;;;;;;;;;;;;;;4.00;100.00;97635.81;5094729;28;20052;-72
2022/11/26 04:28:18;;;;;;;;;;;;;;;3.99;100.00;97635.00;5095024;28;20355;-72
2022/11/26 04:30:44;;;;;;;;;;;;;;;3.98;100.00;97627.34;5093534;28;19957;-73
2022/11/26 04:33:09;;;;;;;;;;;;;;;3.99;100.00;97634.16;5093286;28;19998;-73
2022/11/26 04:35:36;;;;;;;;;;;;;;;4.01;100.00;97632.25;5094833;28;19965;-73
2022/11/26 04:38:02;;;;;;;;;;;;;;;4.00;100.00;97634.03;5093270;28;19953;-72
2022/11/26 04:40:28;;;;;;;;;;;;;;;3.99;100.00;97636.75;5093328;28;19956;-73
2022/11/26 04:42:54;;;;;;;;;;;;;;;3.98;100.00;97640.34;5093338;28;19954;-73
2022/11/26 04:45:20;;;;;;;;;;;;;;;3.97;100.00;97642.13;5093550;28;19966;-72
2022/11/26 04:47:45;;;;;;;;;;;;;;;3.97;100.00;97641.28;5094336;28;20036;-73
2022/11/26 04:50:11;;;;;;;;;;;;;;;3.96;100.00;97644.84;5094548;28;19954;-73
2022/11/26 04:52:37;;;;;;;;;;;;;;;3.99;100.00;97649.75;5093092;28;20326;-72
2022/11/26 04:55:03;;;;;;;;;;;;;;;3.97;100.00;97644.72;5094704;28;20042;-72
2022/11/26 04:57:29;;;;;;;;;;;;;;;3.98;100.00;97648.13;5076518;28;19960;-72
2022/11/26 04:59:55;;;;;;;;;;;;;;;3.96;100.00;97643.06;5093049;28;20347;-72
2022/11/26 05:02:21;;;;;;;;;;;;;;;3.96;100.00;97642.25;5094231;28;20417;-73
2022/11/26 05:04:47;;;;;;;;;;;;;;;3.94;100.00;97645.00;5085034;28;20011;-73
2022/11/26 05:07:12;;;;;;;;;;;;;;;3.93;100.00;97642.56;5094695;28;19978;-72
2022/11/26 05:09:38;;;;;;;;;;;;;;;3.90;100.00;97643.66;5094235;28;20406;-73
2022/11/26 05:12:04;;;;;;;;;;;;;;;3.87;100.00;97654.34;5092986;28;19990;-72
2022/11/26 05:14:30;;;;;;;;;;;;;;;3.83;100.00;97653.81;5094218;28;19957;-73
2022/11/26 05:16:56;;;;;;;;;;;;;;;3.81;100.00;97652.31;5092403;28;20394;-73
2022/11/26 05:19:22;;;;;;;;;;;;;;;3.76;100.00;97651.91;5092702;28;20023;-73
2022/11/26 05:21:48;;;;;;;;;;;;;;;3.70;100.00;97653.34;5094129;28;19999;-72
2022/11/26 05:24:13;;;;;;;;;;;;;;;3.66;100.00;97655.41;5093842;28;19999;-72
2022/11/26 05:26:39;;;;;;;;;;;;;;;3.62;100.00;97658.44;5094056;28;19967;-73
2022/11/26 05:29:05;;;;;;;;;;;;;;;3.59;100.00;97669.06;5092731;28;19980;-72
2022/11/26 05:31:31;;;;;;;;;;;;;;;3.54;100.00;97666.91;5093843;28;19955;-72
2022/11/26 05:33:57;;;;;;;;;;;;;;;3.50;100.00;97665.56;5093561;28;19970;-72
2022/11/26 05:36:23;;;;;;;;;;;;;;;3.45;100.00;97660.00;5094007;28;19992;-73
2022/11/26 05:38:49;;;;;;;;;;;;;;;3.38;100.00;97656.31;5094007;28;19975;-72
2022/11/26 05:41:15;;;;;;;;;;;;;;;3.35;100.00;97664.41;5093686;28;19952;-73
2022/11/26 05:43:40;;;;;;;;;;;;;;;3.31;100.00;97668.25;5094135;28;19953;-72
2022/11/26 05:46:07;;;;;;;;;;;;;;;3.27;100.00;97674.66;5093779;28;20433;-72
2022/11/26 05:48:33;;;;;;;;;;;;;;;3.21;100.00;97681.22;5093470;28;20334;-72
2022/11/26 05:51:00;;;;;;;;;;;;;;;3.18;100.00;97676.34;5093577;28;19950;-72
2022/11/26 05:53:25;;;;;;;;;;;;;;;3.15;100.00;97692.16;5093799;28;19953;-72
2022/11/26 05:55:51;;;;;;;;;;;;;;;3.10;100.00;97695.16;5093687;28;19947;-72
2022/11/26 05:58:17;;;;;;;;;;;;;;;3.09;100.00;97698.72;5092347;28;19994;-72
2022/11/26 06:00:43;;;;;;;;;;;;;;;3.04;100.00;97690.53;5092423;28;19999;-72
2022/11/26 06:03:09;;;;;;;;;;;;;;;2.99;100.00;97696.16;5093345;28;19984;-72
2022/11/26 06:05:35;;;;;;;;;;;;;;;2.97;100.00;97697.25;5093483;28;19990;-72
2022/11/26 06:08:01;;;;;;;;;;;;;;;2.95;100.00;97699.97;5093446;28;20425;-73
2022/11/26 06:10:27;;;;;;;;;;;;;;;2.91;100.00;97696.03;5093472;28;19943;-72
2022/11/26 06:12:53;;;;;;;;;;;;;;;2.88;100.00;97698.06;5093414;28;20403;-72
2022/11/26 06:15:19;;;;;;;;;;;;;;;2.83;100.00;97704.50;5092340;28;19954;-72
2022/11/26 06:17:44;;;;;;;;;;;;;;;2.80;100.00;97706.53;5093284;28;19960;-72
2022/11/26 06:20:11;;;;;;;;;;;;;;;2.78;100.00;97711.03;5094261;28;19995;-72
2022/11/26 06:22:37;;;;;;;;;;;;;;;2.74;100.00;97705.31;5092662;28;19955;-72
2022/11/26 06:25:04;;;;;;;;;;;;;;;2.74;100.00;97707.09;5092287;28;19948;-73
2022/11/26 06:27:31;;;;;;;;;;;;;;;2.72;100.00;97706.41;5083073;28;20400;-72
2022/11/26 06:29:57;;;;;;;;;;;;;;;2.68;100.00;97715.41;5096935;28;20291;-72
2022/11/26 06:32:23;;;;;;;;;;;;;;;2.65;100.00;97713.91;5096953;28;20057;-72
2022/11/26 06:34:49;;;;;;;;;;;;;;;2.63;100.00;97708.03;5097396;28;20460;-72
2022/11/26 06:37:15;;;;;;;;;;;;;;;2.59;100.00;97715.25;5095679;28;19958;-72
2022/11/26 06:39:41;;;;;;;;;;;;;;;2.56;100.00;97718.13;5096862;28;19950;-72
2022/11/26 06:42:07;;;;;;;;;;;;;;;2.54;100.00;97714.88;5079078;28;19956;-72
2022/11/26 06:44:36;;;;;;;;;;;;;;;2.51;100.00;97720.31;5096936;28;19960;-73
2022/11/26 06:47:02;;;;;;;;;;;;;;;2.51;100.00;97729.84;5095928;28;19971;-72
2022/11/26 06:49:28;;;;;;;;;;;;;;;2.50;100.00;97734.22;5096632;28;20004;-72
2022/11/26 06:51:54;;;;;;;;;;;;;;;2.52;100.00;97734.06;5097197;28;20002;-72
2022/11/26 06:54:20;;;;;;;;;;;;;;;2.51;100.00;97738.44;5096983;28;19961;-72
2022/11/26 06:56:45;;;;;;;;;;;;;;;2.51;100.00;97743.59;5096552;28;19962;-72
2022/11/26 06:59:11;;;;;;;;;;;;;;;2.50;100.00;97744.56;5096577;28;19947;-72
2022/11/26 07:01:37;;;;;;;;;;;;;;;2.50;100.00;97757.53;5095203;28;20042;-72
2022/11/26 07:04:03;;;;;;;;;;;;;;;2.50;100.00;97767.03;5096646;28;19954;-72
2022/11/26 07:06:30;;;;;;;;;;;;;;;2.47;100.00;97769.91;5096453;28;19972;-71
2022/11/26 07:08:57;;;;;;;;;;;;;;;2.46;100.00;97769.09;5096409;28;19948;-71
2022/11/26 07:11:24;;;;;;;;;;;;;;;2.47;100.00;97782.84;5096462;28;19949;-72
2022/11/26 07:13:50;;;;;;;;;;;;;;;2.47;100.00;97788.03;5087515;28;19950;-72
2022/11/26 07:16:16;;;;;;;;;;;;;;;2.46;100.00;97781.19;5096101;28;19962;-71
2022/11/26 07:18:42;;;;;;;;;;;;;;;2.46;100.00;97786.38;5096542;28;19946;-72
2022/11/26 07:21:09;;;;;;;;;;;;;;;2.47;100.00;97788.03;5095995;28;19997;-72
2022/11/26 07:23:35;;;;;;;;;;;;;;;2.49;100.00;97793.91;5096166;28;20283;-72
2022/11/26 07:26:02;;;;;;;;;;;;;;;2.54;100.00;97802.06;5096086;28;19968;-72
2022/11/26 07:28:29;;;;;;;;;;;;;;;2.57;100.00;97799.22;5096129;28;19977;-72
2022/11/26 07:30:58;;;;;;;;;;;;;;;2.61;100.00;97806.59;5094721;28;19949;-72
2022/11/26 07:33:24;;;;;;;;;;;;;;;2.66;100.00;97805.38;5095571;28;20480;-72
2022/11/26 07:35:50;;;;;;;;;;;;;;;2.70;100.00;97814.50;5096329;28;19991;-72
2022/11/26 07:38:16;;;;;;;;;;;;;;;2.78;100.00;97812.06;5095985;28;20367;-72
2022/11/26 07:40:42;;;;;;;;;;;;;;;2.89;100.00;97821.50;5094820;28;20004;-72
2022/11/26 07:43:08;;;;;;;;;;;;;;;2.97;100.00;97819.84;5077731;28;19954;-72
2022/11/26 07:45:37;;;;;;;;;;;;;;;3.04;100.00;97820.97;5095823;28;19957;-72
2022/11/26 07:48:03;;;;;;;;;;;;;;;3.11;100.00;97822.97;5094303;28;19953;-72
2022/11/26 07:50:29;;;;;;;;;;;;;;;3.18;100.00;97831.88;5095724;28;19953;-73
2022/11/26 07:52:55;;;;;;;;;;;;;;;3.27;100.00;97838.81;5095514;28;19949;-73
2022/11/26 07:55:21;;;;;;;;;;;;;;;3.36;100.00;97831.97;5077501;28;20016;-73
2022/11/26 07:57:47;;;;;;;;;;;;;;;3.47;100.00;97839.63;5095659;28;19953;-73
2022/11/26 08:00:13;;;;;;;;;;;;;;;3.57;100.00;97834.41;5094082;28;19963;-73
2022/11/26 08:02:39;;;;;;;;;;;;;;;3.68;100.00;97833.47;5095247;28;19954;-73
2022/11/26 08:05:05;;;;;;;;;;;;;;;3.80;100.00;97833.16;5095228;28;20302;-72
2022/11/26 08:07:31;;;;;;;;;;;;;;;3.88;100.00;97827.25;5095103;28;19968;-73
2022/11/26 08:09:56;;;;;;;;;;;;;;;3.98;100.00;97828.03;5093835;28;20041;-73
2022/11/26 08:12:22;;;;;;;;;;;;;;;4.07;100.00;97834.16;5093986;28;20317;-73
2022/11/26 08:14:48;;;;;;;;;;;;;;;4.15;100.00;97829.06;5094058;28;19954;-73
2022/11/26 08:17:14;;;;;;;;;;;;;;;4.33;100.00;97834.31;5095718;28;20316;-73
2022/11/26 08:19:40;;;;;;;;;;;;;;;4.55;100.00;97834.88;5094902;28;19949;-73
2022/11/26 08:22:06;;;;;;;;;;;;;;;4.76;100.00;97832.84;5076920;28;19969;-73
2022/11/26 08:24:32;;;;;;;;;;;;;;;4.83;100.00;97828.72;5093958;28;19954;-73
2022/11/26 08:26:58;;;;;;;;;;;;;;;4.84;100.00;97824.31;5094724;28;20004;-73
2022/11/26 08:29:24;;;;;;;;;;;;;;;4.89;100.00;97822.09;5095030;28;19947;-73
2022/11/26 08:31:50;;;;;;;;;;;;;;;4.98;100.00;97833.41;5094720;28;19955;-73
2022/11/26 08:34:16;;;;;;;;;;;;;;;5.07;100.00;97828.09;5093481;28;19986;-74
2022/11/26 08:36:43;;;;;;;;;;;;;;;5.14;100.00;97830.13;5094749;28;20014;-73
2022/11/26 08:39:13;;;;;;;;;;;;;;;5.17;100.00;97833.25;5094789;28;19955;-73
2022/11/26 08:41:39;;;;;;;;;;;;;;;5.24;100.00;97830.84;5094566;28;19946;-73
2022/11/26 08:44:05;;;;;;;;;;;;;;;5.22;100.00;97835.38;5094871;28;19967;-73
2022/11/26 08:46:34;;;;;;;;;;;;;;;5.03;100.00;97831.16;5093285;28;20016;-73
2022/11/26 08:49:00;;;;;;;;;;;;;;;4.88;100.00;97829.06;5094642;28;20403;-73
2022/11/26 08:51:25;;;;;;;;;;;;;;;4.74;100.00;97831.34;5093945;28;19954;-73
2022/11/26 08:53:51;;;;;;;;;;;;;;;4.64;100.00;97842.63;5094370;28;20402;-73
2022/11/26 08:56:17;;;;;;;;;;;;;;;4.47;100.00;97835.59;5094256;28;19955;-73
2022/11/26 08:58:44;;;;;;;;;;;;;;;4.38;100.00;97836.47;5094994;28;19945;-73
2022/11/26 09:01:31;;;;;;;;;;;;;;;4.31;100.00;97833.66;5094195;28;19957;-73
2022/11/26 09:03:58;;;;;;;;;;;;;;;4.38;100.00;97841.69;5094146;28;19950;-72
2022/11/26 09:06:25;;;;;;;;;;;;;;;4.30;100.00;97844.97;5094110;28;20349;-73
2022/11/26 09:11:37;;;;;;;;;;;;;;;4.23;100.00;97849.13;5093374;28;19961;-73
2022/11/26 09:14:03;;;;;;;;;;;;;;;4.27;100.00;97855.66;5075922;28;19954;-73
2022/11/26 09:16:29;;;;;;;;;;;;;;;4.36;100.00;97859.19;5093992;28;19952;-73
2022/11/26 09:18:58;;;;;;;;;;;;;;;4.38;100.00;97854.66;5094012;28;19951;-73
2022/11/26 09:21:24;;;;;;;;;;;;;;;4.45;100.00;97850.50;5094141;28;19952;-73
2022/11/26 09:23:49;;;;;;;;;;;;;;;4.51;100.00;97859.53;5093784;28;20419;-72
2022/11/26 09:26:17;;;;;;;;;;;;;;;4.56;100.00;97858.13;5094188;28;19961;-73
2022/11/26 09:28:42;;;;;;;;;;;;;;;4.58;100.00;97851.00;5093800;28;19953;-73
2022/11/26 09:31:08;;;;;;;;;;;;;;;4.75;100.00;97862.41;5093691;28;19967;-73
2022/11/26 09:33:34;;;;;;;;;;;;;;;5.01;100.00;97864.28;5093573;28;20462;-73
2022/11/26 09:36:07;;;;;;;;;;;;;;;5.18;100.00;97868.66;5094137;28;19959;-73
2022/11/26 09:38:34;;;;;;;;;;;;;;;5.45;100.00;97875.56;5093726;28;19954;-73
2022/11/26 09:41:07;;;;;;;;;;;;;;;5.77;100.00;97869.00;5094127;28;19949;-73
2022/11/26 09:43:42;;;;;;;;;;;;;;;6.03;100.00;97879.47;5092625;28;19953;-73
2022/11/26 09:46:09;;;;;;;;;;;;;;;6.34;100.00;97880.75;5093642;28;19949;-73
2022/11/26 09:48:37;;;;;;;;;;;;;;;6.59;100.00;97877.28;5093706;28;19947;-73
2022/11/26 09:51:06;;;;;;;;;;;;;;;6.73;100.00;97877.66;5093567;28;19952;-73
2022/11/26 09:53:35;;;;;;;;;;;;;;;6.73;100.00;97869.84;5093621;28;19952;-73
2022/11/26 09:56:02;;;;;;;;;;;;;;;6.70;100.00;97868.38;5093766;28;19953;-73
2022/11/26 09:58:28;;;;;;;;;;;;;;;6.75;99.57;97853.06;5093757;28;19956;-73
2022/11/26 10:00:55;;;;;;;;;;;;;;;6.81;99.22;97862.06;5092394;28;19950;-73
2022/11/26 10:03:22;;;;;;;;;;;;;;;6.86;100.00;97864.97;5096324;28;19956;-73
2022/11/26 10:06:05;;;;;;;;;;;;;;;7.02;100.00;97859.81;5097505;28;20022;-73
2022/11/26 10:08:34;;;;;;;;;;;;;;;7.17;100.00;97867.00;5096445;28;19953;-73
2022/11/26 10:11:11;;;;;;;;;;;;;;;7.22;97.34;97862.13;5097580;28;20314;-73
2022/11/26 10:13:52;;;;;;;;;;;;;;;7.21;98.05;97863.09;5090346;28;20328;-73
2022/11/26 10:16:35;;;;;;;;;;;;;;;7.23;95.03;97856.75;5097314;28;19950;-73
2022/11/26 10:19:04;;;;;;;;;;;;;;;7.15;96.27;97866.34;5096308;28;19964;-73
2022/11/26 10:21:32;;;;;;;;;;;;;;;7.08;96.62;97869.59;5097219;28;19947;-73
2022/11/26 10:24:02;;;;;;;;;;;;;;;7.24;99.13;97875.81;5095942;28;19951;-73
2022/11/26 10:26:31;;;;;;;;;;;;;;;7.45;98.53;97860.50;5079068;28;19990;-73
2022/11/26 10:29:05;;;;;;;;;;;;;;;7.51;97.14;97859.84;5097010;28;19959;-73
2022/11/26 10:31:32;;;;;;;;;;;;;;;7.55;94.72;97852.50;5097341;28;19948;-73
2022/11/26 10:34:02;;;;;;;;;;;;;;;7.58;96.96;97856.59;5095629;28;19972;-73
2022/11/26 10:36:36;;;;;;;;;;;;;;;7.61;95.19;97851.84;5097727;28;20009;-73
2022/11/26 10:39:02;;;;;;;;;;;;;;;7.56;94.05;97845.50;5096938;28;19946;-73
2022/11/26 10:41:29;;;;;;;;;;;;;;;7.53;96.41;97865.72;5096898;28;19948;-73
2022/11/26 10:44:15;;;;;;;;;;;;;;;7.61;97.23;97859.69;5097191;28;20435;-73
2022/11/26 10:46:41;;;;;;;;;;;;;;;7.71;95.70;97846.47;5082366;28;19975;-73
2022/11/26 10:49:14;;;;;;;;;;;;;;;7.76;95.71;97838.94;5096747;28;19956;-73
2022/11/26 10:51:40;;;;;;;;;;;;;;;7.86;96.54;97852.66;5096761;28;20319;-73
2022/11/26 10:54:20;;;;;;;;;;;;;;;7.99;96.05;97844.28;5096911;28;19960;-73
2022/11/26 10:56:46;;;;;;;;;;;;;;;8.08;93.53;97832.03;5096759;28;19955;-73
2022/11/26 10:59:21;;;;;;;;;;;;;;;8.08;92.92;97830.25;5096494;28;19954;-72
2022/11/26 11:01:48;;;;;;;;;;;;;;;8.13;92.51;97822.72;5096662;28;19944;-73
2022/11/26 11:04:26;;;;;;;;;;;;;;;8.17;93.85;97825.81;5096427;28;19986;-73
2022/11/26 11:06:52;;;;;;;;;;;;;;;8.25;93.48;97824.94;5096258;28;19964;-73
2022/11/26 11:09:24;;;;;;;;;;;;;;;8.32;92.57;97818.88;5096549;28;20050;-73
2022/11/26 11:12:08;;;;;;;;;;;;;;;8.32;91.28;97811.03;5096256;28;19957;-72
2022/11/26 11:14:34;;;;;;;;;;;;;;;8.35;90.52;97812.50;5094576;28;20496;-72
2022/11/26 11:17:00;;;;;;;;;;;;;;;8.37;90.43;97809.72;5096669;28;19955;-72
2022/11/26 11:19:26;;;;;;;;;;;;;;;8.40;89.04;97801.53;5096086;28;19957;-72
2022/11/26 11:21:52;;;;;;;;;;;;;;;8.40;89.47;97802.34;5096067;28;19947;-72
2022/11/26 11:24:23;;;;;;;;;;;;;;;8.37;91.18;97807.91;5096046;28;19971;-72
2022/11/26 11:26:53;;;;;;;;;;;;;;;8.31;89.51;97805.97;5096079;28;19967;-72
2022/11/26 11:29:22;;;;;;;;;;;;;;;8.29;91.91;97813.16;5094858;28;19947;-72
2022/11/26 11:31:48;;;;;;;;;;;;;;;8.34;90.55;97809.06;5096193;28;19957;-72
2022/11/26 11:34:19;;;;;;;;;;;;;;;8.41;91.56;97806.63;5095540;28;20445;-72
2022/11/26 11:36:57;;;;;;;;;;;;;;;8.48;93.48;97814.59;5096103;28;20404;-72
2022/11/26 11:39:27;;;;;;;;;;;;;;;8.58;92.31;97814.38;5086105;28;20409;-72
2022/11/26 11:41:52;;;;;;;;;;;;;;;8.57;90.70;97804.91;5095638;28;19951;-72
2022/11/26 11:44:30;;;;;;;;;;;;;;;8.53;89.30;97801.84;5095802;28;20003;-72
2022/11/26 11:46:56;;;;;;;;;;;;;;;8.47;90.15;97805.94;5095597;28;19960;-72
2022/11/26 11:49:25;;;;;;;;;;;;;;;8.41;89.49;97797.97;5096462;28;20297;-72
2022/11/26 11:52:09;;;;;;;;;;;;;;;8.30;90.27;97794.72;5095646;28;19949;-73
2022/11/26 11:54:51;;;;;;;;;;;;;;;8.28;91.99;97801.91;5095619;28;20419;-72
2022/11/26 11:57:29;;;;;;;;;;;;;;;8.31;92.30;97806.78;5084826;28;19950;-72
2022/11/26 12:00:09;;;;;;;;;;;;;;;8.37;91.62;97792.22;5095327;28;20306;-72
2022/11/26 12:02:36;;;;;;;;;;;;;;;8.44;90.47;97792.38;5095703;28;20305;-72
2022/11/26 12:05:04;;;;;;;;;;;;;;;8.43;91.58;97796.81;5095342;28;19953;-72
2022/11/26 12:07:34;;;;;;;;;;;;;;;8.40;88.11;97770.16;5095361;28;19970;-73
2022/11/26 12:10:06;;;;;;;;;;;;;;;8.33;90.96;97796.97;5095118;28;19961;-72
2022/11/26 12:12:58;;;;;;;;;;;;;;;8.31;90.63;97782.44;5093957;28;20010;-72
2022/11/26 12:15:27;;;;;;;;;;;;;;;8.29;90.11;97781.81;5082746;28;19972;-72
2022/11/26 12:17:56;;;;;;;;;;;;;;;8.31;90.19;97778.03;5093751;28;19940;-73
2022/11/26 12:20:27;;;;;;;;;;;;;;;8.25;88.98;97778.75;5095114;28;19955;-73
2022/11/26 12:22:59;;;;;;;;;;;;;;;8.17;91.80;97791.00;5086492;28;19956;-72
2022/11/26 12:25:28;;;;;;;;;;;;;;;8.06;92.78;97798.25;5094188;28;19957;-73
2022/11/26 12:28:05;;;;;;;;;;;;;;;7.99;92.20;97781.59;5094599;28;20450;-72
2022/11/26 12:30:43;;;;;;;;;;;;;;;8.01;92.91;97792.69;5094898;28;20314;-72
2022/11/26 12:33:19;;;;;;;;;;;;;;;8.13;92.97;97788.72;5093209;28;19965;-73
2022/11/26 12:35:50;;;;;;;;;;;;;;;8.21;89.95;97776.59;5094953;28;19955;-73
2022/11/26 12:38:28;;;;;;;;;;;;;;;8.16;89.28;97779.75;5094808;28;20429;-72
2022/11/26 12:41:00;;;;;;;;;;;;;;;8.09;89.62;97787.44;5094426;28;19949;-72
2022/11/26 12:43:38;;;;;;;;;;;;;;;8.05;92.23;97798.41;5095017;28;19958;-72
2022/11/26 12:46:07;;;;;;;;;;;;;;;8.09;90.49;97784.03;5078909;28;19957;-72
2022/11/26 12:48:50;;;;;;;;;;;;;;;8.16;91.13;97787.56;5094783;28;19967;-72
2022/11/26 12:51:34;;;;;;;;;;;;;;;8.20;89.46;97781.03;5094471;28;20349;-72
2022/11/26 12:54:05;;;;;;;;;;;;;;;8.28;90.64;97777.56;5094505;28;19945;-72
2022/11/26 12:56:40;;;;;;;;;;;;;;;8.32;89.68;97773.63;5093267;28;20015;-72